Time;durP1;ratioP1;P1;durP2;ratioP2;P2;SDS_P1;SDS_P2;PMS_P1;PMS_P2;Temp;Humidity;BMP_temperature;BMP_pressure;BME280_temperature;BME280_humidity;BME280_pressure;Samples;Min_cycle;Max_cycle;Signal;HPM_P1;HPM_P2
2022/07/30 00:00:56;;;;;;;5.35;3.50;;;20.70;99.90;;;;;;5051981;28;20100;-84
2022/07/30 00:03:21;;;;;;;5.53;3.30;;;20.80;99.90;;;;;;5050570;28;20017;-78
2022/07/30 00:05:47;;;;;;;4.53;3.60;;;20.80;99.90;;;;;;5049401;28;20029;-84
2022/07/30 00:08:13;;;;;;;4.75;3.05;;;20.80;99.90;;;;;;5050100;28;20027;-78
2022/07/30 00:10:38;;;;;;;6.25;3.05;;;20.80;99.90;;;;;;5051286;28;20504;-79
2022/07/30 00:13:04;;;;;;;6.88;3.90;;;20.80;99.90;;;;;;5050996;28;20064;-82
2022/07/30 00:15:30;;;;;;;6.38;3.60;;;20.80;99.90;;;;;;5049462;28;20021;-76
2022/07/30 00:17:55;;;;;;;3.67;3.10;;;20.80;99.90;;;;;;5051069;28;20475;-78
2022/07/30 00:20:22;;;;;;;6.00;3.55;;;20.80;99.90;;;;;;5051060;28;20017;-78
2022/07/30 00:22:47;;;;;;;5.65;3.55;;;20.80;99.90;;;;;;5049487;28;20025;-84
2022/07/30 00:25:13;;;;;;;4.15;3.70;;;20.70;99.90;;;;;;5051325;28;20083;-84
2022/07/30 00:27:39;;;;;;;4.68;3.80;;;20.80;99.90;;;;;;5049138;28;20033;-78
2022/07/30 00:30:05;;;;;;;7.65;4.00;;;20.70;99.90;;;;;;5049596;28;20032;-83
2022/07/30 00:32:31;;;;;;;11.65;3.97;;;20.70;99.90;;;;;;5049082;28;20021;-80
2022/07/30 00:34:56;;;;;;;4.65;4.18;;;20.70;99.90;;;;;;5050898;28;20481;-77
2022/07/30 00:37:22;;;;;;;6.32;4.78;;;20.70;99.90;;;;;;5049906;28;20033;-85
2022/07/30 00:39:48;;;;;;;6.93;4.80;;;20.70;99.90;;;;;;5049504;28;20033;-78
2022/07/30 00:42:13;;;;;;;7.78;5.13;;;20.60;99.90;;;;;;5050573;28;20039;-83
2022/07/30 00:44:40;;;;;;;7.20;4.97;;;20.60;99.90;;;;;;5050850;28;20028;-77
2022/07/30 00:47:05;;;;;;;6.75;5.07;;;20.60;99.90;;;;;;5048388;28;20068;-77
2022/07/30 00:49:31;;;;;;;10.65;5.60;;;20.50;99.90;;;;;;5050760;28;20060;-78
2022/07/30 00:51:56;;;;;;;11.07;5.55;;;20.40;99.90;;;;;;5050289;28;20454;-80
2022/07/30 00:54:22;;;;;;;6.70;5.07;;;20.30;99.90;;;;;;5050673;28;20030;-77
2022/07/30 00:56:47;;;;;;;6.78;4.70;;;20.30;99.90;;;;;;5050047;28;20110;-77
2022/07/30 00:59:13;;;;;;;7.72;4.88;;;20.20;99.90;;;;;;5049204;28;20029;-80
2022/07/30 01:01:39;;;;;;;7.60;5.47;;;20.20;99.90;;;;;;5049011;28;20112;-77
2022/07/30 01:04:10;;;;;;;6.85;5.07;;;20.30;99.90;;;;;;5050381;28;20029;-82
2022/07/30 01:06:36;;;;;;;8.40;5.18;;;20.30;99.90;;;;;;5048723;28;20030;-79
2022/07/30 01:09:01;;;;;;;7.93;5.25;;;20.30;99.90;;;;;;5050018;28;20032;-77
2022/07/30 01:11:34;;;;;;;7.03;5.57;;;20.30;99.90;;;;;;5050517;28;20030;-86
2022/07/30 01:13:59;;;;;;;6.18;5.30;;;20.30;99.90;;;;;;5050427;28;20040;-77
2022/07/30 01:16:25;;;;;;;10.13;5.15;;;20.30;99.90;;;;;;5049406;28;20458;-79
2022/07/30 01:19:47;;;;;;;7.47;5.50;;;20.30;99.90;;;;;;5050718;28;20094;-84
2022/07/30 01:22:15;;;;;;;6.18;4.95;;;20.30;99.90;;;;;;5050334;28;20021;-79
2022/07/30 01:24:54;;;;;;;8.02;5.72;;;20.40;99.90;;;;;;5049417;28;20025;-77
2022/07/30 01:27:21;;;;;;;6.38;5.47;;;20.30;99.90;;;;;;5048157;28;20032;-77
2022/07/30 01:29:49;;;;;;;8.48;5.28;;;20.40;99.90;;;;;;5048499;28;20054;-78
2022/07/30 01:32:18;;;;;;;7.22;5.40;;;20.30;99.90;;;;;;5050319;28;20116;-85
2022/07/30 01:34:45;;;;;;;7.38;5.15;;;20.40;99.90;;;;;;5050307;28;20033;-77
2022/07/30 01:37:11;;;;;;;8.25;5.20;;;20.30;99.90;;;;;;5048291;28;20028;-77
2022/07/30 01:39:38;;;;;;;5.97;5.38;;;20.30;99.90;;;;;;5050534;28;20103;-82
2022/07/30 01:42:07;;;;;;;10.68;5.80;;;20.30;99.90;;;;;;5049864;28;20442;-77
2022/07/30 01:44:33;;;;;;;8.82;5.47;;;20.30;99.90;;;;;;5050388;28;20021;-76
2022/07/30 01:47:00;;;;;;;9.20;5.95;;;20.30;99.90;;;;;;5049407;28;20061;-77
2022/07/30 01:49:28;;;;;;;5.55;5.05;;;20.30;99.90;;;;;;5048759;28;20036;-80
2022/07/30 01:51:53;;;;;;;8.20;6.25;;;20.30;99.90;;;;;;5050265;28;20082;-80
2022/07/30 01:54:22;;;;;;;8.73;6.18;;;20.30;99.90;;;;;;5050653;28;20037;-80
2022/07/30 01:56:50;;;;;;;6.55;4.70;;;20.30;99.90;;;;;;5049551;28;20033;-77
2022/07/30 01:59:19;;;;;;;7.18;5.53;;;20.30;99.90;;;;;;5048645;28;20025;-84
2022/07/30 02:01:45;;;;;;;9.45;6.25;;;20.30;99.90;;;;;;5049821;28;20040;-80
2022/07/30 02:04:10;;;;;;;7.03;5.85;;;20.20;99.90;;;;;;5050169;28;20362;-80
2022/07/30 02:06:44;;;;;;;6.68;5.10;;;20.30;99.90;;;;;;5048751;28;20037;-80
2022/07/30 02:09:14;;;;;;;9.88;6.47;;;20.30;99.90;;;;;;5054182;28;20021;-79
2022/07/30 02:14:39;;;;;;;7.03;4.47;;;20.20;99.90;;;;;;5054164;28;20112;-80
2022/07/30 02:17:10;;;;;;;7.95;5.85;;;20.20;99.90;;;;;;5052647;28;20092;-79
2022/07/30 02:19:41;;;;;;;6.78;5.60;;;20.20;99.90;;;;;;5052372;28;20021;-79
2022/07/30 02:22:11;;;;;;;6.53;5.80;;;20.10;99.90;;;;;;5053456;28;20361;-79
2022/07/30 02:24:40;;;;;;;8.25;6.35;;;20.10;99.90;;;;;;5052741;28;20119;-81
2022/07/30 02:27:11;;;;;;;7.70;6.13;;;19.90;99.90;;;;;;5052759;28;20032;-80
2022/07/30 02:29:37;;;;;;;6.50;5.68;;;19.70;99.90;;;;;;5052542;28;20067;-80
2022/07/30 02:32:09;;;;;;;8.65;6.55;;;19.80;99.90;;;;;;5051936;28;20025;-80
2022/07/30 02:34:37;;;;;;;6.90;6.15;;;19.70;99.90;;;;;;5052172;28;20045;-86
2022/07/30 02:37:05;;;;;;;6.20;5.53;;;19.80;99.90;;;;;;5053243;28;20037;-78
2022/07/30 02:39:32;;;;;;;6.53;5.55;;;19.80;99.90;;;;;;5053670;28;20017;-85
2022/07/30 02:41:59;;;;;;;6.15;5.55;;;19.80;99.90;;;;;;5053139;28;20037;-78
2022/07/30 02:44:28;;;;;;;7.38;5.35;;;19.80;99.90;;;;;;5053294;28;20736;-79
2022/07/30 02:46:55;;;;;;;6.85;6.15;;;19.80;99.90;;;;;;5052727;28;20029;-81
2022/07/30 02:49:22;;;;;;;9.27;6.70;;;19.80;99.90;;;;;;5051768;28;20123;-78
2022/07/30 02:51:49;;;;;;;10.50;5.75;;;19.80;99.90;;;;;;5051748;28;20698;-81
2022/07/30 02:54:17;;;;;;;9.82;6.88;;;19.80;99.90;;;;;;5052246;28;20151;-79
2022/07/30 02:56:45;;;;;;;6.80;6.10;;;19.90;99.90;;;;;;5053915;28;20035;-79
2022/07/30 02:59:11;;;;;;;9.30;6.63;;;19.90;99.90;;;;;;5053619;28;20102;-79
2022/07/30 03:01:37;;;;;;;9.02;7.30;;;19.90;99.90;;;;;;5052705;28;20078;-78
2022/07/30 03:04:04;;;;;;;7.95;6.53;;;19.90;99.90;;;;;;5053404;28;20017;-80
2022/07/30 03:06:30;;;;;;;8.43;7.03;;;19.90;99.90;;;;;;5051379;28;20116;-80
2022/07/30 03:08:58;;;;;;;7.50;5.88;;;19.90;99.90;;;;;;5054098;28;20017;-83
2022/07/30 03:11:25;;;;;;;8.57;6.28;;;19.90;99.90;;;;;;5054572;28;20091;-78
2022/07/30 03:13:51;;;;;;;10.40;6.32;;;19.90;99.90;;;;;;5054288;28;20435;-81
2022/07/30 03:16:20;;;;;;;7.40;6.07;;;20.00;99.90;;;;;;5052524;28;20021;-80
2022/07/30 03:18:47;;;;;;;10.98;6.75;;;20.00;99.90;;;;;;5054441;28;20032;-80
2022/07/30 03:21:13;;;;;;;7.85;6.40;;;20.00;99.90;;;;;;5051838;28;20025;-84
2022/07/30 03:23:41;;;;;;;9.93;6.20;;;20.00;99.90;;;;;;5053056;28;20028;-78
2022/07/30 03:26:08;;;;;;;7.35;6.63;;;20.00;99.90;;;;;;5051888;28;20061;-77
2022/07/30 03:28:36;;;;;;;10.80;6.50;;;20.00;99.90;;;;;;5051885;28;20602;-83
2022/07/30 03:31:04;;;;;;;8.18;6.63;;;20.10;99.90;;;;;;5053212;28;20025;-78
2022/07/30 03:33:31;;;;;;;8.85;6.32;;;20.00;99.90;;;;;;5052799;28;20041;-80
2022/07/30 03:35:57;;;;;;;7.72;6.47;;;20.00;99.90;;;;;;5051784;28;20029;-78
2022/07/30 03:38:24;;;;;;;9.82;6.47;;;20.00;99.90;;;;;;5051146;28;20024;-78
2022/07/30 03:40:50;;;;;;;8.05;6.70;;;20.00;99.90;;;;;;5052179;28;20079;-78
2022/07/30 03:43:17;;;;;;;10.95;7.40;;;20.00;99.90;;;;;;5052111;28;20029;-78
2022/07/30 03:45:44;;;;;;;9.20;6.47;;;20.00;99.90;;;;;;5050469;28;20115;-78
2022/07/30 03:48:12;;;;;;;9.23;6.82;;;20.00;99.90;;;;;;5050625;28;20016;-81
2022/07/30 03:50:40;;;;;;;9.75;7.03;;;20.00;99.90;;;;;;5051340;28;20025;-78
2022/07/30 03:53:07;;;;;;;8.57;6.32;;;20.00;99.90;;;;;;5051729;28;20381;-78
2022/07/30 03:55:34;;;;;;;11.45;7.03;;;20.00;99.90;;;;;;5050418;28;20021;-77
2022/07/30 03:58:00;;;;;;;9.27;7.25;;;20.00;99.90;;;;;;5051690;28;20076;-77
2022/07/30 04:00:26;;;;;;;12.05;7.75;;;20.00;99.90;;;;;;5050944;28;20075;-81
2022/07/30 04:02:52;;;;;;;9.50;7.18;;;20.00;99.90;;;;;;5050268;28;20017;-77
2022/07/30 04:05:17;;;;;;;9.65;7.30;;;20.00;99.90;;;;;;5050564;28;20418;-77
2022/07/30 04:07:43;;;;;;;8.63;7.03;;;19.90;99.90;;;;;;5051039;28;20128;-82
2022/07/30 04:10:09;;;;;;;7.43;6.72;;;19.90;99.90;;;;;;5051957;28;20457;-77
2022/07/30 04:12:34;;;;;;;11.23;7.32;;;19.90;99.90;;;;;;5051444;28;20082;-78
2022/07/30 04:15:00;;;;;;;8.48;7.45;;;19.90;99.90;;;;;;5052095;28;20385;-77
2022/07/30 04:17:41;;;;;;;7.75;6.93;;;19.80;99.90;;;;;;5050123;28;20031;-82
2022/07/30 04:20:09;;;;;;;8.93;7.38;;;19.70;99.90;;;;;;5050197;28;20461;-78
2022/07/30 04:22:36;;;;;;;9.60;7.88;;;19.70;99.90;;;;;;5052264;28;20032;-77
2022/07/30 04:25:05;;;;;;;10.68;8.18;;;19.70;99.90;;;;;;5050541;28;20020;-78
2022/07/30 04:27:31;;;;;;;9.18;8.27;;;19.60;99.90;;;;;;5049952;28;20033;-83
2022/07/30 04:29:57;;;;;;;9.77;7.78;;;19.60;99.90;;;;;;5050764;28;20769;-85
2022/07/30 04:32:22;;;;;;;8.68;7.88;;;19.50;99.90;;;;;;5049321;28;20064;-84
2022/07/30 04:34:50;;;;;;;9.30;8.18;;;19.40;99.90;;;;;;5051585;28;20347;-82
2022/07/30 04:37:17;;;;;;;9.25;7.43;;;19.30;99.90;;;;;;5049340;28;20025;-78
2022/07/30 04:39:42;;;;;;;9.60;8.23;;;19.30;99.90;;;;;;5051282;28;20021;-83
2022/07/30 04:42:08;;;;;;;10.60;8.70;;;19.20;99.90;;;;;;5049452;28;20112;-78
2022/07/30 04:44:33;;;;;;;11.13;8.55;;;19.20;99.90;;;;;;5051023;28;20036;-77
2022/07/30 04:46:59;;;;;;;11.50;8.57;;;19.30;99.90;;;;;;5050452;28;20493;-83
2022/07/30 04:49:26;;;;;;;11.50;9.18;;;19.20;99.90;;;;;;5050963;28;20365;-81
2022/07/30 04:51:53;;;;;;;10.95;8.25;;;19.20;99.90;;;;;;5050903;28;20102;-81
2022/07/30 04:54:20;;;;;;;14.57;9.20;;;19.20;99.90;;;;;;5051241;28;20412;-80
2022/07/30 04:56:47;;;;;;;12.25;9.52;;;19.20;99.90;;;;;;5049788;28;20029;-83
2022/07/30 04:59:15;;;;;;;13.20;8.40;;;19.20;99.90;;;;;;5050876;28;20424;-78
2022/07/30 05:01:42;;;;;;;9.15;8.25;;;19.20;99.90;;;;;;5051177;28;20056;-77
2022/07/30 05:04:09;;;;;;;12.45;9.05;;;19.30;99.90;;;;;;5049821;28;20453;-76
2022/07/30 05:06:36;;;;;;;8.57;7.75;;;19.40;99.90;;;;;;5048907;28;20044;-80
2022/07/30 05:09:02;;;;;;;11.07;8.10;;;19.40;99.90;;;;;;5050323;28;20446;-82
2022/07/30 05:11:28;;;;;;;8.38;7.05;;;19.30;99.90;;;;;;5049044;28;20032;-77
2022/07/30 05:13:53;;;;;;;7.93;6.57;;;19.30;99.90;;;;;;5049913;28;20029;-80
2022/07/30 05:16:18;;;;;;;11.65;6.68;;;19.30;99.90;;;;;;5049894;28;20433;-78
2022/07/30 05:18:44;;;;;;;9.32;6.65;;;19.20;99.90;;;;;;5049599;28;20021;-78
2022/07/30 05:21:09;;;;;;;8.40;6.40;;;19.20;99.90;;;;;;5050800;28;20024;-80
2022/07/30 05:23:35;;;;;;;7.43;6.50;;;19.30;99.90;;;;;;5049960;28;20060;-80
2022/07/30 05:26:01;;;;;;;7.03;6.32;;;19.20;99.90;;;;;;5050954;28;20119;-84
2022/07/30 05:28:26;;;;;;;7.38;6.13;;;19.20;99.90;;;;;;5050423;28;20372;-84
2022/07/30 05:30:53;;;;;;;8.73;7.82;;;19.20;99.90;;;;;;5050483;28;20056;-78
2022/07/30 05:33:20;;;;;;;8.15;7.10;;;19.20;99.90;;;;;;5050904;28;20087;-84
2022/07/30 05:35:47;;;;;;;9.70;7.45;;;19.20;99.90;;;;;;5050200;28;20454;-78
2022/07/30 05:38:13;;;;;;;9.02;7.68;;;19.20;99.90;;;;;;5050553;28;20074;-80
2022/07/30 05:40:38;;;;;;;7.85;6.93;;;19.30;99.90;;;;;;5049477;28;20028;-84
2022/07/30 05:43:04;;;;;;;8.20;7.22;;;19.40;99.90;;;;;;5052168;28;20115;-81
2022/07/30 05:45:29;;;;;;;9.20;6.50;;;19.40;99.90;;;;;;5052843;28;20422;-78
2022/07/30 05:47:55;;;;;;;7.57;6.28;;;19.50;99.90;;;;;;5054692;28;20533;-79
2022/07/30 05:50:20;;;;;;;9.75;5.93;;;19.50;99.90;;;;;;5053205;28;20025;-82
2022/07/30 05:52:46;;;;;;;8.27;6.47;;;19.60;99.90;;;;;;5053166;28;20369;-78
2022/07/30 05:55:11;;;;;;;7.18;5.82;;;19.60;99.90;;;;;;5054018;28;20033;-78
2022/07/30 05:57:37;;;;;;;6.38;5.63;;;19.60;99.90;;;;;;5052924;28;20064;-78
2022/07/30 06:00:08;;;;;;;6.97;5.93;;;19.70;99.90;;;;;;5052811;28;20100;-84
2022/07/30 06:02:33;;;;;;;5.82;5.22;;;19.70;99.90;;;;;;5054050;28;20025;-78
2022/07/30 06:04:59;;;;;;;7.10;5.40;;;19.80;99.90;;;;;;5052725;28;20673;-80
2022/07/30 06:07:25;;;;;;;7.13;5.20;;;19.90;99.90;;;;;;5053312;28;20035;-80
2022/07/30 06:09:51;;;;;;;5.72;4.80;;;19.90;99.90;;;;;;5054106;28;20039;-79
2022/07/30 06:12:16;;;;;;;6.40;5.03;;;20.00;99.90;;;;;;5052542;28;20443;-78
2022/07/30 06:14:42;;;;;;;5.43;4.45;;;19.90;99.90;;;;;;5054110;28;20109;-81
2022/07/30 06:17:07;;;;;;;5.68;5.00;;;20.00;99.90;;;;;;5051921;28;20021;-82
2022/07/30 06:19:33;;;;;;;6.00;5.10;;;20.00;99.90;;;;;;5052859;28;20059;-78
2022/07/30 06:21:58;;;;;;;5.60;4.60;;;20.10;99.90;;;;;;5053525;28;20116;-80
2022/07/30 06:24:24;;;;;;;5.90;5.30;;;20.10;99.90;;;;;;5052342;28;20025;-81
2022/07/30 06:26:49;;;;;;;6.82;5.20;;;20.10;99.90;;;;;;5051450;28;20029;-79
2022/07/30 06:29:15;;;;;;;6.30;4.68;;;20.20;99.90;;;;;;5053546;28;20033;-84
2022/07/30 06:31:40;;;;;;;7.50;4.88;;;20.20;99.90;;;;;;5053497;28;20449;-79
2022/07/30 06:34:06;;;;;;;6.90;5.63;;;20.20;99.90;;;;;;5053534;28;20035;-79
2022/07/30 06:36:31;;;;;;;5.90;4.75;;;20.20;99.90;;;;;;5052029;28;20037;-79
2022/07/30 06:38:57;;;;;;;5.70;4.90;;;20.10;99.90;;;;;;5052112;28;20023;-78
2022/07/30 06:41:22;;;;;;;4.82;4.32;;;20.20;99.90;;;;;;5052951;28;20051;-79
2022/07/30 06:43:49;;;;;;;5.68;4.72;;;20.20;99.90;;;;;;5053416;28;20535;-83
2022/07/30 06:46:15;;;;;;;5.70;5.13;;;20.20;99.90;;;;;;5052854;28;20039;-78
2022/07/30 06:48:41;;;;;;;9.05;5.43;;;20.10;99.90;;;;;;5051996;28;20021;-80
2022/07/30 06:51:06;;;;;;;7.65;5.35;;;20.20;99.90;;;;;;5051467;28;20361;-79
2022/07/30 06:53:32;;;;;;;7.03;5.80;;;20.20;99.90;;;;;;5051512;28;20028;-79
2022/07/30 06:55:58;;;;;;;6.57;5.35;;;20.10;99.90;;;;;;5052249;28;20056;-84
2022/07/30 06:58:23;;;;;;;8.15;6.78;;;20.10;99.90;;;;;;5051389;28;20646;-82
2022/07/30 07:00:49;;;;;;;7.50;5.80;;;20.10;99.90;;;;;;5051237;28;20029;-79
2022/07/30 07:03:14;;;;;;;7.50;5.82;;;20.20;99.90;;;;;;5051361;28;20025;-82
2022/07/30 07:05:40;;;;;;;6.97;5.18;;;20.20;99.90;;;;;;5050931;28;20017;-78
2022/07/30 07:08:05;;;;;;;6.43;5.47;;;20.20;99.90;;;;;;5052343;28;20021;-79
2022/07/30 07:10:31;;;;;;;7.57;5.57;;;20.10;99.90;;;;;;5052914;28;20032;-85
2022/07/30 07:12:57;;;;;;;7.25;5.53;;;20.10;99.90;;;;;;5051194;28;20576;-79
2022/07/30 07:15:22;;;;;;;6.03;5.45;;;20.10;99.90;;;;;;5052338;28;20017;-80
2022/07/30 07:17:47;;;;;;;6.65;5.18;;;20.10;99.90;;;;;;5052357;28;20139;-79
2022/07/30 07:20:13;;;;;;;7.53;5.43;;;20.00;99.90;;;;;;5052245;28;20370;-80
2022/07/30 07:22:38;;;;;;;7.88;6.03;;;19.90;99.90;;;;;;5050960;28;20052;-81
2022/07/30 07:25:04;;;;;;;9.35;6.05;;;19.80;99.90;;;;;;5052020;28;20094;-79
2022/07/30 07:27:31;;;;;;;7.65;5.25;;;19.70;99.90;;;;;;5050482;28;20426;-79
2022/07/30 07:29:56;;;;;;;7.72;5.35;;;19.70;99.90;;;;;;5053428;28;20028;-80
2022/07/30 07:32:22;;;;;;;9.23;5.20;;;19.60;99.90;;;;;;5052495;28;20103;-79
2022/07/30 07:34:47;;;;;;;6.68;5.50;;;19.70;99.90;;;;;;5052849;28;20071;-80
2022/07/30 07:37:14;;;;;;;6.93;5.60;;;19.70;99.90;;;;;;5050071;28;20079;-81
2022/07/30 07:39:40;;;;;;;6.88;5.13;;;19.70;99.90;;;;;;5051936;28;20104;-79
2022/07/30 07:42:06;;;;;;;10.02;5.95;;;19.50;99.90;;;;;;5050210;28;20121;-79
2022/07/30 07:44:31;;;;;;;8.82;5.68;;;19.40;99.90;;;;;;5051992;28;20415;-81
2022/07/30 07:46:57;;;;;;;8.15;5.65;;;19.40;99.90;;;;;;5049705;28;20037;-80
2022/07/30 07:49:22;;;;;;;9.18;5.63;;;19.40;99.90;;;;;;5051911;28;20104;-79
2022/07/30 07:51:47;;;;;;;9.55;6.00;;;19.40;99.90;;;;;;5050353;28;20064;-81
2022/07/30 07:54:13;;;;;;;6.68;5.55;;;19.40;99.90;;;;;;5051769;28;20484;-77
2022/07/30 07:56:39;;;;;;;6.68;4.90;;;19.50;99.90;;;;;;5049790;28;20025;-83
2022/07/30 07:59:04;;;;;;;8.23;5.43;;;19.50;99.90;;;;;;5050163;28;20032;-80
2022/07/30 08:01:30;;;;;;;9.32;6.18;;;19.50;99.90;;;;;;5051276;28;20083;-80
2022/07/30 08:03:55;;;;;;;7.70;5.82;;;19.60;99.90;;;;;;5049962;28;20059;-80
2022/07/30 08:06:20;;;;;;;7.47;4.78;;;19.70;99.90;;;;;;5050313;28;20044;-79
2022/07/30 08:08:46;;;;;;;6.18;4.90;;;19.70;99.90;;;;;;5051485;28;20411;-79
2022/07/30 08:11:11;;;;;;;8.82;5.63;;;19.60;99.90;;;;;;5049654;28;20021;-82
2022/07/30 08:13:37;;;;;;;7.60;4.53;;;19.70;99.90;;;;;;5051367;28;20520;-79
2022/07/30 08:16:02;;;;;;;8.60;5.18;;;19.70;99.90;;;;;;5049196;28;20067;-79
2022/07/30 08:18:28;;;;;;;9.38;5.95;;;19.80;99.90;;;;;;5051139;28;20090;-82
2022/07/30 08:20:54;;;;;;;6.90;4.70;;;19.80;99.90;;;;;;5049782;28;20021;-81
2022/07/30 08:23:21;;;;;;;5.80;4.68;;;19.80;99.90;;;;;;5050941;28;20056;-84
2022/07/30 08:25:47;;;;;;;5.70;4.22;;;19.90;99.90;;;;;;5050608;28;20017;-79
2022/07/30 08:28:12;;;;;;;8.70;5.10;;;19.90;99.90;;;;;;5050879;28;20021;-82
2022/07/30 08:30:38;;;;;;;6.25;4.55;;;19.90;99.90;;;;;;5049742;28;20354;-83
2022/07/30 08:33:04;;;;;;;5.57;4.50;;;19.80;99.90;;;;;;5050652;28;20060;-81
2022/07/30 08:35:29;;;;;;;9.05;4.75;;;19.80;99.90;;;;;;5049126;28;20024;-80
2022/07/30 08:37:55;;;;;;;7.57;5.18;;;19.80;99.90;;;;;;5050749;28;20033;-79
2022/07/30 08:40:25;;;;;;;6.97;4.95;;;19.90;99.90;;;;;;5049498;28;20057;-80
2022/07/30 08:42:52;;;;;;;11.40;5.40;;;19.90;99.90;;;;;;5050597;28;20040;-81
2022/07/30 08:45:18;;;;;;;7.90;4.68;;;19.90;99.90;;;;;;5049116;28;20017;-83
2022/07/30 08:47:45;;;;;;;8.45;4.90;;;19.90;99.90;;;;;;5050422;28;20094;-78
2022/07/30 08:50:11;;;;;;;10.75;4.88;;;19.90;99.90;;;;;;5050721;28;20087;-80
2022/07/30 08:52:37;;;;;;;5.40;4.63;;;20.00;99.90;;;;;;5050399;28;20021;-78
2022/07/30 08:55:04;;;;;;;7.97;5.10;;;20.00;99.90;;;;;;5049123;28;20035;-79
2022/07/30 08:57:32;;;;;;;5.88;4.32;;;20.00;99.90;;;;;;5049937;28;20056;-79
2022/07/30 08:59:58;;;;;;;5.53;4.60;;;20.10;99.90;;;;;;5050320;28;20405;-82
2022/07/30 09:02:23;;;;;;;6.97;5.03;;;20.10;99.90;;;;;;5048506;28;20029;-82
2022/07/30 09:04:49;;;;;;;8.27;5.05;;;20.10;99.90;;;;;;5049015;28;20036;-78
2022/07/30 09:07:15;;;;;;;6.10;5.20;;;20.10;99.90;;;;;;5048372;28;20119;-78
2022/07/30 09:09:40;;;;;;;5.65;5.13;;;20.00;99.90;;;;;;5049106;28;20025;-78
2022/07/30 09:12:38;;;;;;;10.85;5.53;;;19.90;99.90;;;;;;5050232;28;20029;-78
2022/07/30 09:15:05;;;;;;;8.57;4.78;;;19.90;99.90;;;;;;5050364;28;20120;-78
2022/07/30 09:17:50;;;;;;;6.93;4.97;;;19.90;99.90;;;;;;5048879;28;20025;-80
2022/07/30 09:20:16;;;;;;;7.45;5.57;;;19.90;99.90;;;;;;5050297;28;20104;-78
2022/07/30 09:22:47;;;;;;;7.43;5.38;;;19.90;99.90;;;;;;5050022;28;20029;-78
2022/07/30 09:25:13;;;;;;;8.20;5.63;;;19.90;99.90;;;;;;5050182;28;20019;-83
2022/07/30 09:27:46;;;;;;;7.30;5.68;;;19.90;99.90;;;;;;5049847;28;20115;-79
2022/07/30 09:30:12;;;;;;;9.48;5.28;;;20.00;99.90;;;;;;5050472;28;20032;-84
2022/07/30 09:32:48;;;;;;;6.32;5.72;;;20.00;99.90;;;;;;5049988;28;20021;-78
2022/07/30 09:35:14;;;;;;;6.38;5.72;;;20.00;99.90;;;;;;5050167;28;20028;-78
2022/07/30 09:37:40;;;;;;;7.13;5.85;;;20.00;99.90;;;;;;5048610;28;20120;-83
2022/07/30 09:40:16;;;;;;;7.22;6.00;;;20.00;99.90;;;;;;5048983;28;20131;-79
2022/07/30 09:42:43;;;;;;;6.18;5.57;;;20.00;99.90;;;;;;5048648;28;20362;-79
2022/07/30 09:45:11;;;;;;;8.35;6.85;;;20.00;99.90;;;;;;5050097;28;20373;-79
2022/07/30 09:47:43;;;;;;;8.10;6.55;;;20.00;99.90;;;;;;5048473;28;20029;-78
2022/07/30 09:50:14;;;;;;;9.10;5.60;;;20.00;99.90;;;;;;5049941;28;20102;-78
2022/07/30 09:52:45;;;;;;;11.40;6.45;;;20.10;99.90;;;;;;5049725;28;20031;-82
2022/07/30 09:55:12;;;;;;;7.85;6.18;;;20.20;99.90;;;;;;5049069;28;20032;-83
2022/07/30 09:57:55;;;;;;;10.27;6.35;;;20.20;99.90;;;;;;5049687;28;20043;-82
2022/07/30 10:00:23;;;;;;;8.25;5.45;;;20.30;99.90;;;;;;5048897;28;20347;-80
2022/07/30 10:02:50;;;;;;;6.78;5.50;;;20.30;99.90;;;;;;5048212;28;20115;-78
2022/07/30 10:05:20;;;;;;;7.20;5.65;;;20.40;99.90;;;;;;5048265;28;20409;-82
2022/07/30 10:07:53;;;;;;;7.63;6.65;;;20.30;99.90;;;;;;5049518;28;20533;-85
2022/07/30 10:10:21;;;;;;;6.82;6.15;;;20.30;99.90;;;;;;5049814;28;20029;-79
2022/07/30 10:12:50;;;;;;;8.32;7.05;;;20.30;99.90;;;;;;5048467;28;20021;-79
2022/07/30 10:15:19;;;;;;;9.93;6.90;;;20.30;99.90;;;;;;5043140;28;20078;-81
2022/07/30 10:17:45;;;;;;;7.93;6.65;;;20.30;99.90;;;;;;5048445;28;20033;-82
2022/07/30 10:20:11;;;;;;;7.82;6.57;;;20.30;99.90;;;;;;5048428;28;20021;-79
2022/07/30 10:22:37;;;;;;;11.40;6.30;;;20.20;99.90;;;;;;5049758;28;20025;-77
2022/07/30 10:25:04;;;;;;;8.80;6.90;;;20.20;99.90;;;;;;5050025;28;20037;-79
2022/07/30 10:27:30;;;;;;;12.15;7.18;;;20.10;99.90;;;;;;5049826;28;20394;-83
2022/07/30 10:29:57;;;;;;;8.20;7.28;;;20.10;99.90;;;;;;5054040;28;20032;-78
2022/07/30 10:32:25;;;;;;;8.95;7.28;;;20.10;99.90;;;;;;5053111;28;20027;-81
2022/07/30 10:34:51;;;;;;;13.43;7.88;;;20.10;99.90;;;;;;5053500;28;20085;-82
2022/07/30 10:37:18;;;;;;;7.70;6.90;;;20.10;99.90;;;;;;5053169;28;20032;-78
2022/07/30 10:39:52;;;;;;;9.27;6.25;;;20.10;99.90;;;;;;5052942;28;20159;-77
2022/07/30 10:42:30;;;;;;;7.68;6.10;;;20.10;99.90;;;;;;5053724;28;20021;-78
2022/07/30 10:45:14;;;;;;;10.60;6.68;;;20.10;99.90;;;;;;5053395;28;20096;-77
2022/07/30 10:47:40;;;;;;;9.50;6.95;;;20.00;99.90;;;;;;5052421;28;20025;-78
2022/07/30 10:50:11;;;;;;;11.73;6.55;;;20.00;99.90;;;;;;5053052;28;20033;-77
2022/07/30 10:53:06;;;;;;;7.95;6.53;;;20.00;99.90;;;;;;5053068;28;20036;-77
2022/07/30 10:55:34;;;;;;;12.07;7.72;;;19.90;99.90;;;;;;5051054;28;20031;-81
2022/07/30 10:58:11;;;;;;;11.18;7.05;;;19.90;99.90;;;;;;5051771;28;20033;-79
2022/07/30 11:00:52;;;;;;;11.48;8.45;;;19.90;99.90;;;;;;5051627;28;20028;-81
2022/07/30 11:03:22;;;;;;;10.35;8.45;;;19.80;99.90;;;;;;5052721;28;20076;-78
2022/07/30 11:06:11;;;;;;;14.95;9.10;;;19.80;99.90;;;;;;5050740;28;20074;-77
2022/07/30 11:08:38;;;;;;;11.27;7.93;;;19.80;99.90;;;;;;5052375;28;20112;-78
2022/07/30 11:11:26;;;;;;;9.23;7.55;;;19.80;99.90;;;;;;5052150;28;20064;-79
2022/07/30 11:13:59;;;;;;;12.63;7.97;;;19.90;99.90;;;;;;5052391;28;20013;-81
2022/07/30 11:16:31;;;;;;;14.82;7.47;;;19.80;99.90;;;;;;5051452;28;20104;-78
2022/07/30 11:19:05;;;;;;;11.20;8.43;;;19.80;99.90;;;;;;5052670;28;20087;-79
2022/07/30 11:21:32;;;;;;;12.77;8.77;;;19.90;99.90;;;;;;5050976;28;20025;-80
2022/07/30 11:23:58;;;;;;;9.63;7.47;;;19.90;99.90;;;;;;5050927;28;20060;-82
2022/07/30 11:26:42;;;;;;;9.55;6.60;;;19.90;99.90;;;;;;5050069;28;20029;-78
2022/07/30 11:29:35;;;;;;;8.95;7.60;;;20.00;99.90;;;;;;5050834;28;20025;-80
2022/07/30 11:32:27;;;;;;;11.25;7.35;;;19.90;99.90;;;;;;5052095;28;20021;-80
2022/07/30 11:35:11;;;;;;;8.32;6.18;;;19.90;99.90;;;;;;5050999;28;20021;-81
2022/07/30 11:37:56;;;;;;;10.88;7.57;;;20.00;99.90;;;;;;5051354;28;20017;-79
2022/07/30 11:40:24;;;;;;;11.27;7.32;;;20.00;99.90;;;;;;5051761;28;20024;-78
2022/07/30 11:42:50;;;;;;;8.73;5.90;;;20.00;99.90;;;;;;5051434;28;20036;-79
2022/07/30 11:45:16;;;;;;;11.23;5.95;;;20.10;99.90;;;;;;5050414;28;20036;-78
2022/07/30 11:47:43;;;;;;;12.00;7.25;;;20.10;99.90;;;;;;5050179;28;20400;-77
2022/07/30 11:50:31;;;;;;;8.55;6.38;;;20.10;99.90;;;;;;5051812;28;20036;-82
2022/07/30 11:53:02;;;;;;;7.47;6.03;;;20.20;99.90;;;;;;5050061;28;20365;-79
2022/07/30 11:55:31;;;;;;;7.00;6.40;;;20.30;99.90;;;;;;5051230;28;20078;-82
2022/07/30 11:57:58;;;;;;;7.78;5.90;;;20.40;99.90;;;;;;5050269;28;20021;-84
2022/07/30 12:00:31;;;;;;;7.80;5.70;;;20.40;99.90;;;;;;5051672;28;20025;-79
2022/07/30 12:02:58;;;;;;;7.57;6.13;;;20.50;99.90;;;;;;5049771;28;20017;-79
2022/07/30 12:05:25;;;;;;;8.88;6.15;;;20.70;99.90;;;;;;5051170;28;20458;-80
2022/07/30 12:07:56;;;;;;;9.30;6.15;;;20.80;99.90;;;;;;5050306;28;20474;-80
2022/07/30 12:10:21;;;;;;;8.77;5.70;;;20.90;99.90;;;;;;5051407;28;20445;-79
2022/07/30 12:12:47;;;;;;;9.25;5.85;;;20.90;99.90;;;;;;5050001;28;20032;-81
2022/07/30 12:15:30;;;;;;;6.03;5.43;;;21.00;99.90;;;;;;5050047;28;20083;-79
2022/07/30 12:17:56;;;;;;;9.20;6.88;;;21.10;99.90;;;;;;5050384;28;20067;-78
2022/07/30 12:20:21;;;;;;;8.98;5.72;;;21.10;99.90;;;;;;5051332;28;20056;-81
2022/07/30 12:22:47;;;;;;;7.07;5.70;;;21.10;99.90;;;;;;5051180;28;20536;-79
2022/07/30 12:25:13;;;;;;;8.15;6.35;;;21.10;99.90;;;;;;5050660;28;20024;-80
2022/07/30 12:27:39;;;;;;;8.05;5.82;;;21.20;99.90;;;;;;5050595;28;20125;-79
2022/07/30 12:30:06;;;;;;;6.85;5.55;;;21.10;99.90;;;;;;5049859;28;20053;-83
2022/07/30 12:32:32;;;;;;;6.07;5.40;;;21.20;99.90;;;;;;5050674;28;20021;-79
2022/07/30 12:34:57;;;;;;;7.35;5.78;;;21.20;99.90;;;;;;5051082;28;20020;-79
2022/07/30 12:37:23;;;;;;;6.78;5.93;;;21.20;99.90;;;;;;5049045;28;20140;-81
2022/07/30 12:40:12;;;;;;;5.60;5.03;;;21.10;99.90;;;;;;5049767;28;20025;-79
2022/07/30 12:42:54;;;;;;;6.38;4.53;;;21.00;99.90;;;;;;5050521;28;20052;-84
2022/07/30 12:45:30;;;;;;;8.40;5.18;;;21.00;99.90;;;;;;5049243;28;20529;-79
2022/07/30 12:47:57;;;;;;;7.25;5.15;;;21.10;99.90;;;;;;5050691;28;20036;-79
2022/07/30 12:50:24;;;;;;;5.95;4.97;;;21.10;99.90;;;;;;5050783;28;20024;-79
2022/07/30 12:52:51;;;;;;;9.27;5.32;;;21.10;99.90;;;;;;5050346;28;20023;-79